Ragan Village, North Carolina
Current Conditions -  °F | °C
As of 5:54 AM on Thursday 18 Dec 2014 (Local Time) from KAKH Reporting Station
Clear Clear  
Wind Chill: 36°   Ceiling: Unl
Heat Index: 36°   Visibility: 10mi
Dew Point: 27°   Wind: 3mph
Humidity: 70%   Direction: 60°ENE
Pressure: 30.12"   Gusts: NA
Location:  35.2631°N, 81.1487°W
Report Text: KAKH 181054Z AUTO 06003KT 10SM CLR 02/M03 A3012 RMK AO2 SLP204 T00221028
Loading
Personal Weather Stations






























Interactive Weather Map New forecast layout! Learn more

10-Day Weather Forecast

Advertisements
Track Severe Weather on mobile